createdAt,value
2022-12-12T00:00:00.780Z,21.85
2022-12-12T00:02:46.448Z,21.20
2022-12-12T00:05:32.018Z,27.00
2022-12-12T00:08:17.594Z,26.10
2022-12-12T00:11:04.041Z,26.45
2022-12-12T00:13:50.190Z,26.30
2022-12-12T00:16:35.892Z,26.15
2022-12-12T00:19:21.650Z,29.70
2022-12-12T00:22:07.100Z,26.25
2022-12-12T00:24:52.724Z,26.98
2022-12-12T00:27:38.361Z,28.33
2022-12-12T00:30:24.317Z,29.20
2022-12-12T00:33:09.982Z,23.88
2022-12-12T00:35:55.853Z,25.15
2022-12-12T00:38:41.284Z,37.72
2022-12-12T00:41:26.881Z,33.88
2022-12-12T00:44:12.946Z,26.92
2022-12-12T00:46:58.936Z,27.95
2022-12-12T00:49:44.351Z,29.05
2022-12-12T00:52:29.820Z,27.52
2022-12-12T00:55:15.663Z,34.20
2022-12-12T00:58:01.380Z,28.80
2022-12-12T01:00:47.018Z,29.30
2022-12-12T01:03:37.724Z,36.80
2022-12-12T01:06:23.493Z,32.42
2022-12-12T01:09:09.148Z,46.67
2022-12-12T01:11:54.656Z,35.95
2022-12-12T01:14:40.693Z,34.70
2022-12-12T01:17:26.490Z,33.97
2022-12-12T01:20:19.528Z,34.22
2022-12-12T01:23:05.327Z,54.63
2022-12-12T01:25:58.947Z,40.72
2022-12-12T01:28:44.948Z,38.47
2022-12-12T01:31:30.810Z,33.80
2022-12-12T01:34:17.041Z,39.33
2022-12-12T01:37:03.004Z,43.97
2022-12-12T01:39:48.686Z,34.72
2022-12-12T01:42:34.476Z,42.35
2022-12-12T01:45:58.038Z,42.67
2022-12-12T01:48:52.586Z,38.25
2022-12-12T01:51:40.116Z,37.50
2022-12-12T01:54:29.188Z,35.17
2022-12-12T01:57:20.769Z,34.78
2022-12-12T02:00:08.782Z,51.88
2022-12-12T02:02:55.917Z,27.75
2022-12-12T02:06:03.476Z,43.28
2022-12-12T02:08:51.549Z,32.70
2022-12-12T02:11:46.348Z,29.58
2022-12-12T02:14:36.522Z,51.58
2022-12-12T02:17:43.553Z,29.77
2022-12-12T02:21:01.741Z,42.90
2022-12-12T02:24:11.791Z,29.80
2022-12-12T02:27:16.380Z,33.33
2022-12-12T02:30:24.695Z,30.42
2022-12-12T02:33:15.793Z,37.67
2022-12-12T02:36:07.401Z,40.20
2022-12-12T02:39:45.660Z,26.95
2022-12-12T02:42:57.173Z,37.30
2022-12-12T02:45:51.226Z,33.28
2022-12-12T02:48:42.827Z,28.75
2022-12-12T02:51:30.778Z,27.60
2022-12-12T02:54:19.935Z,52.47
2022-12-12T02:57:19.281Z,24.10
2022-12-12T03:00:10.219Z,22.75
2022-12-12T03:03:31.020Z,22.88
2022-12-12T03:06:50.025Z,24.95
2022-12-12T03:09:48.137Z,24.85
2022-12-12T03:12:48.981Z,23.80
2022-12-12T03:15:47.735Z,23.13
2022-12-12T03:19:11.486Z,32.13
2022-12-12T03:22:20.862Z,16.58
2022-12-12T03:25:22.466Z,26.55
2022-12-12T03:28:18.513Z,26.63
2022-12-12T03:31:09.334Z,24.02
2022-12-12T03:34:03.237Z,22.23
2022-12-12T03:37:09.744Z,21.42
2022-12-12T03:39:57.626Z,21.30
2022-12-12T03:43:14.741Z,18.20
2022-12-12T03:46:18.831Z,17.52
2022-12-12T03:49:12.007Z,19.55
2022-12-12T03:52:13.881Z,19.88
2022-12-12T03:55:26.983Z,17.00
2022-12-12T03:58:21.627Z,16.88
2022-12-12T04:01:12.508Z,16.50
2022-12-12T04:04:16.532Z,17.92
2022-12-12T04:07:34.860Z,18.48
2022-12-12T04:10:46.422Z,16.92
2022-12-12T04:13:52.348Z,17.77
2022-12-12T04:16:42.835Z,18.83
2022-12-12T04:20:30.260Z,15.40
2022-12-12T04:23:53.418Z,17.33
2022-12-12T04:26:47.721Z,18.00
2022-12-12T04:29:54.164Z,16.15
2022-12-12T04:32:56.597Z,19.98
2022-12-12T04:35:46.242Z,18.88
2022-12-12T04:38:33.541Z,18.73
2022-12-12T04:41:21.235Z,19.73
2022-12-12T04:44:09.967Z,20.40
2022-12-12T04:46:56.573Z,17.25
2022-12-12T04:49:45.341Z,19.10
2022-12-12T04:52:33.745Z,20.73
2022-12-12T04:55:31.342Z,23.30
2022-12-12T04:58:17.660Z,27.17
2022-12-12T05:01:52.683Z,25.13
2022-12-12T05:04:58.647Z,28.27
2022-12-12T05:07:56.963Z,32.17
2022-12-12T05:10:50.710Z,29.63
2022-12-12T05:13:39.500Z,33.78
2022-12-12T05:16:32.992Z,30.60
2022-12-12T05:19:19.018Z,30.77
2022-12-12T05:22:04.662Z,28.98
2022-12-12T05:24:50.366Z,28.98
2022-12-12T05:27:35.914Z,33.80
2022-12-12T05:30:21.555Z,34.35
2022-12-12T05:33:07.122Z,40.63
2022-12-12T05:35:52.693Z,33.72
2022-12-12T05:38:38.536Z,32.80
2022-12-12T05:41:23.947Z,37.00
2022-12-12T05:44:09.573Z,34.13
2022-12-12T05:46:55.192Z,33.80
2022-12-12T05:49:40.782Z,35.00
2022-12-12T05:52:27.473Z,32.72
2022-12-12T05:55:13.400Z,31.27
2022-12-12T05:57:59.009Z,31.63
2022-12-12T06:00:46.583Z,33.35
2022-12-12T06:03:32.969Z,33.38
2022-12-12T06:06:18.656Z,34.78
2022-12-12T06:09:04.426Z,33.60
2022-12-12T06:11:50.065Z,43.70
2022-12-12T06:14:35.947Z,38.63
2022-12-12T06:17:21.534Z,35.15
2022-12-12T06:20:07.773Z,43.30
2022-12-12T06:22:54.097Z,43.00
2022-12-12T06:25:40.079Z,55.28
2022-12-12T06:28:25.861Z,43.38
2022-12-12T06:31:12.552Z,56.85
2022-12-12T06:33:58.353Z,50.03
2022-12-12T06:36:44.332Z,36.30
2022-12-12T06:39:30.235Z,41.03
2022-12-12T06:42:16.229Z,34.67
2022-12-12T06:45:01.954Z,44.22
2022-12-12T06:47:47.604Z,34.33
2022-12-12T06:50:33.417Z,32.67
2022-12-12T06:53:19.032Z,37.85
2022-12-12T06:56:15.581Z,42.25
2022-12-12T06:59:01.330Z,54.17
2022-12-12T07:01:47.616Z,42.63
2022-12-12T07:04:33.696Z,35.40
2022-12-12T07:07:19.477Z,34.67
2022-12-12T07:10:06.222Z,37.67
2022-12-12T07:12:57.454Z,38.35
2022-12-12T07:15:51.227Z,36.50
2022-12-12T07:18:37.125Z,39.03
2022-12-12T07:21:22.999Z,35.83
2022-12-12T07:24:08.596Z,41.70
2022-12-12T07:26:54.129Z,39.50
2022-12-12T07:29:39.807Z,46.17
2022-12-12T07:32:25.341Z,39.53
2022-12-12T07:35:10.948Z,39.40
2022-12-12T07:37:57.037Z,41.38
2022-12-12T07:40:43.517Z,42.90
2022-12-12T07:43:29.156Z,34.10
2022-12-12T07:46:21.179Z,36.80
2022-12-12T07:49:06.928Z,31.00
2022-12-12T07:51:52.353Z,35.33
2022-12-12T07:54:38.129Z,39.47
2022-12-12T07:57:23.965Z,38.85
2022-12-12T08:00:13.184Z,34.55
2022-12-12T08:02:58.700Z,40.05
2022-12-12T08:05:44.481Z,37.83
2022-12-12T08:08:30.072Z,41.33
2022-12-12T08:11:17.807Z,36.97
2022-12-12T08:14:12.746Z,38.03
2022-12-12T08:16:59.264Z,39.85
2022-12-12T08:19:45.196Z,38.25
2022-12-12T08:22:32.260Z,35.00
2022-12-12T08:25:19.230Z,36.72
2022-12-12T08:28:05.400Z,35.83
2022-12-12T08:30:51.719Z,38.97
2022-12-12T08:33:37.589Z,37.78
2022-12-12T08:36:32.227Z,35.03
2022-12-12T08:39:18.396Z,33.45
2022-12-12T08:42:04.756Z,34.60
2022-12-12T08:44:50.653Z,32.90
2022-12-12T08:47:36.490Z,34.65
2022-12-12T08:50:21.999Z,36.67
2022-12-12T08:53:07.803Z,39.05
2022-12-12T08:55:54.848Z,34.40
2022-12-12T08:58:40.420Z,34.20
2022-12-12T09:01:27.800Z,34.83
2022-12-12T09:04:13.684Z,38.25
2022-12-12T09:07:02.392Z,40.35
2022-12-12T09:09:52.625Z,39.65
2022-12-12T09:12:41.637Z,37.50
2022-12-12T09:15:27.899Z,35.60
2022-12-12T09:18:13.556Z,38.78
2022-12-12T09:20:59.717Z,37.92
2022-12-12T09:23:45.313Z,37.00
2022-12-12T09:26:30.960Z,39.63
2022-12-12T09:29:16.803Z,38.30
2022-12-12T09:32:06.503Z,36.70
2022-12-12T09:34:52.082Z,39.90
2022-12-12T09:37:37.625Z,36.78
2022-12-12T09:40:35.958Z,39.70
2022-12-12T09:43:29.632Z,38.38
2022-12-12T09:46:26.630Z,37.00
2022-12-12T09:49:22.637Z,35.45
2022-12-12T09:52:32.139Z,37.50
2022-12-12T09:55:20.830Z,39.30
2022-12-12T09:58:36.362Z,37.83
2022-12-12T10:01:36.852Z,39.75
2022-12-12T10:04:29.119Z,40.25
2022-12-12T10:07:37.334Z,35.10
2022-12-12T10:10:28.862Z,32.78
2022-12-12T10:13:17.954Z,37.85
2022-12-12T10:16:12.898Z,38.60
2022-12-12T10:19:12.948Z,34.75
2022-12-12T10:22:08.561Z,37.85
2022-12-12T10:25:20.301Z,34.08
2022-12-12T10:28:16.072Z,35.08
2022-12-12T10:31:31.536Z,35.05
2022-12-12T10:34:51.427Z,38.35
2022-12-12T10:37:46.286Z,38.67
2022-12-12T10:40:45.649Z,32.70
2022-12-12T10:43:43.491Z,34.55
2022-12-12T10:46:39.631Z,34.47
2022-12-12T10:49:25.612Z,35.40
2022-12-12T10:52:19.591Z,33.25
2022-12-12T10:55:17.609Z,32.97
2022-12-12T10:58:05.466Z,31.50
2022-12-12T11:00:51.237Z,34.03
2022-12-12T11:03:44.946Z,32.15
2022-12-12T11:09:28.741Z,37.75
2022-12-12T11:12:15.864Z,40.63
2022-12-12T11:15:14.154Z,35.40
2022-12-12T11:18:05.867Z,35.30
2022-12-12T11:21:01.967Z,35.03
2022-12-12T11:23:52.516Z,37.47
2022-12-12T11:26:49.235Z,36.70
2022-12-12T11:29:46.091Z,33.50
2022-12-12T11:32:44.096Z,32.50
2022-12-12T11:35:45.608Z,39.97
2022-12-12T11:38:39.940Z,36.45
2022-12-12T11:41:25.652Z,34.10
2022-12-12T11:44:25.695Z,37.13
2022-12-12T11:47:20.760Z,35.67
2022-12-12T11:50:27.306Z,31.15
2022-12-12T11:53:12.856Z,36.50
2022-12-12T11:56:10.747Z,34.10
2022-12-12T11:59:24.512Z,35.13
2022-12-12T12:02:19.090Z,38.88
2022-12-12T12:05:16.970Z,32.00
2022-12-12T12:08:11.977Z,35.58
2022-12-12T12:11:25.266Z,30.77
2022-12-12T12:14:31.045Z,44.33
2022-12-12T12:17:29.873Z,32.70
2022-12-12T12:20:32.935Z,32.92
2022-12-12T12:23:42.483Z,31.45
2022-12-12T12:26:54.074Z,34.08
2022-12-12T12:29:57.779Z,32.38
2022-12-12T12:33:17.907Z,32.47
2022-12-12T12:36:10.097Z,34.80
2022-12-12T12:39:01.536Z,32.50
2022-12-12T12:41:56.204Z,29.73
2022-12-12T12:45:17.928Z,28.05
2022-12-12T12:48:27.458Z,34.72
2022-12-12T12:51:22.997Z,29.00
2022-12-12T12:54:20.456Z,31.35
2022-12-12T12:57:05.975Z,42.95
2022-12-12T12:59:56.490Z,31.33
2022-12-12T13:02:57.181Z,35.55
2022-12-12T13:05:47.418Z,31.25
2022-12-12T13:08:53.814Z,29.88
2022-12-12T13:11:44.830Z,33.65
2022-12-12T13:15:05.266Z,31.08
2022-12-12T13:18:14.648Z,33.17
2022-12-12T13:21:12.811Z,30.42
2022-12-12T13:24:17.214Z,28.00
2022-12-12T13:27:26.906Z,32.47
2022-12-12T13:30:22.901Z,28.48
2022-12-12T13:33:26.863Z,33.10
2022-12-12T13:42:14.910Z,37.47
2022-12-12T13:45:36.411Z,34.10
2022-12-12T13:48:27.959Z,35.65
2022-12-12T13:51:28.828Z,37.80
2022-12-12T13:54:14.898Z,36.45
2022-12-12T13:57:00.876Z,36.75
2022-12-12T13:59:52.948Z,34.35
2022-12-12T14:02:45.627Z,36.20
2022-12-12T14:05:35.754Z,31.92
2022-12-12T14:08:33.559Z,32.92
2022-12-12T14:11:36.098Z,36.17
2022-12-12T14:14:24.631Z,36.72
2022-12-12T14:17:23.507Z,35.92
2022-12-12T14:20:29.921Z,32.60
2022-12-12T14:23:24.417Z,36.40
2022-12-12T14:26:28.488Z,37.45
2022-12-12T14:32:11.704Z,32.13
2022-12-12T14:35:15.541Z,32.90
2022-12-12T14:38:27.702Z,34.90
2022-12-12T14:41:21.244Z,32.58
2022-12-12T14:44:37.895Z,32.97
2022-12-12T14:47:24.547Z,37.30
2022-12-12T14:50:16.494Z,33.63
2022-12-12T14:53:03.822Z,31.35
2022-12-12T14:56:16.998Z,32.25
2022-12-12T14:59:06.601Z,41.55
2022-12-12T15:02:05.401Z,27.77
2022-12-12T15:04:58.049Z,30.73
2022-12-12T15:07:46.759Z,31.20
2022-12-12T15:10:33.187Z,29.70
2022-12-12T15:13:21.170Z,30.75
2022-12-12T15:16:07.177Z,38.92
2022-12-12T15:18:55.587Z,33.88
2022-12-12T15:21:46.877Z,32.33
2022-12-12T15:24:38.819Z,37.50
2022-12-12T15:27:46.136Z,39.95
2022-12-12T15:30:41.886Z,38.88
2022-12-12T15:33:27.786Z,41.28
2022-12-12T15:36:25.344Z,40.17
2022-12-12T15:39:16.486Z,39.92
2022-12-12T15:42:02.406Z,92.68
2022-12-12T15:44:50.665Z,45.03
2022-12-12T15:47:37.454Z,41.83
2022-12-12T15:50:28.490Z,40.67
2022-12-12T15:53:24.660Z,41.00
2022-12-12T15:56:12.101Z,39.30
2022-12-12T15:59:09.890Z,42.60
2022-12-12T16:01:55.798Z,42.88
2022-12-12T16:04:41.755Z,45.50
2022-12-12T16:07:27.381Z,44.88
2022-12-12T16:10:22.379Z,47.22
2022-12-12T16:13:40.013Z,40.40
2022-12-12T16:16:45.467Z,46.40
2022-12-12T16:19:53.627Z,41.38
2022-12-12T16:22:48.809Z,37.75
2022-12-12T16:25:34.497Z,45.30
2022-12-12T16:28:25.339Z,43.10
2022-12-12T16:31:17.135Z,47.17
2022-12-12T16:34:04.496Z,45.45
2022-12-12T16:36:52.776Z,44.08
2022-12-12T16:39:38.369Z,43.95
2022-12-12T16:42:24.418Z,41.30
2022-12-12T16:45:11.723Z,41.17
2022-12-12T16:47:58.651Z,39.33
2022-12-12T16:50:45.901Z,39.45
2022-12-12T16:53:32.939Z,38.20
2022-12-12T16:56:20.168Z,41.13
2022-12-12T16:59:05.960Z,47.83
2022-12-12T17:01:51.406Z,56.83
2022-12-12T17:04:37.104Z,65.38
2022-12-12T17:07:22.799Z,60.95
2022-12-12T17:10:09.522Z,57.53
2022-12-12T17:12:55.362Z,55.40
2022-12-12T17:15:41.073Z,50.03
2022-12-12T17:18:27.263Z,45.10
2022-12-12T17:21:14.416Z,40.72
2022-12-12T17:24:00.075Z,46.42
2022-12-12T17:26:46.220Z,44.67
2022-12-12T17:29:34.379Z,41.60
2022-12-12T17:32:24.347Z,38.97
2022-12-12T17:35:10.531Z,42.65
2022-12-12T17:37:59.157Z,39.03
2022-12-12T17:40:44.938Z,54.33
2022-12-12T17:43:30.447Z,52.15
2022-12-12T17:46:17.789Z,47.75
2022-12-12T17:49:03.774Z,41.85
2022-12-12T17:51:49.201Z,41.30
2022-12-12T17:54:34.863Z,38.47
2022-12-12T17:57:24.342Z,44.38
2022-12-12T18:00:11.861Z,45.17
2022-12-12T18:03:00.693Z,46.65
2022-12-12T18:05:46.721Z,41.88
2022-12-12T18:08:32.831Z,47.90
2022-12-12T18:11:31.375Z,45.85
2022-12-12T18:14:19.399Z,53.95
2022-12-12T18:17:15.413Z,82.88
2022-12-12T18:20:01.284Z,115.95
2022-12-12T18:22:46.756Z,165.48
2022-12-12T18:25:36.089Z,131.07
2022-12-12T18:28:21.662Z,118.65
2022-12-12T18:31:08.498Z,222.88
2022-12-12T18:33:54.819Z,65.68
2022-12-12T18:36:40.680Z,66.07
2022-12-12T18:39:26.267Z,87.43
2022-12-12T18:42:11.988Z,62.53
2022-12-12T18:44:57.824Z,58.17
2022-12-12T18:47:43.853Z,54.95
2022-12-12T18:50:29.563Z,110.40
2022-12-12T18:53:15.244Z,66.93
2022-12-12T18:56:04.804Z,67.30
2022-12-12T18:58:53.198Z,70.78
2022-12-12T19:01:39.056Z,60.85
2022-12-12T19:04:25.041Z,59.30
2022-12-12T19:07:11.652Z,62.72
2022-12-12T19:09:57.356Z,59.80
2022-12-12T19:12:43.204Z,67.03
2022-12-12T19:15:28.808Z,63.20
2022-12-12T19:18:14.352Z,56.78
2022-12-12T19:21:07.928Z,60.75
2022-12-12T19:23:54.588Z,55.67
2022-12-12T19:26:44.354Z,58.85
2022-12-12T19:29:33.445Z,59.17
2022-12-12T19:32:19.385Z,53.72
2022-12-12T19:35:05.450Z,58.35
2022-12-12T19:37:50.933Z,55.35
2022-12-12T19:40:36.737Z,59.03
2022-12-12T19:43:22.733Z,65.20
2022-12-12T19:46:11.248Z,61.63
2022-12-12T19:49:05.503Z,69.47
2022-12-12T19:51:51.272Z,62.13
2022-12-12T19:54:36.930Z,59.85
2022-12-12T19:57:26.242Z,62.55
2022-12-12T20:00:12.713Z,66.78
2022-12-12T20:02:59.178Z,60.10
2022-12-12T20:05:49.110Z,54.55
2022-12-12T20:08:39.220Z,58.35
2022-12-12T20:11:25.279Z,54.65
2022-12-12T20:14:14.331Z,60.22
2022-12-12T20:17:02.318Z,55.22
2022-12-12T20:19:49.459Z,56.47
2022-12-12T20:22:34.905Z,63.13
2022-12-12T20:25:20.649Z,60.50
2022-12-12T20:28:06.122Z,61.28
2022-12-12T20:30:53.666Z,57.03
2022-12-12T20:33:40.301Z,49.70
2022-12-12T20:36:31.805Z,56.90
2022-12-12T20:39:20.838Z,55.83
2022-12-12T20:42:06.519Z,66.63
2022-12-12T20:44:52.815Z,68.95
2022-12-12T20:47:39.255Z,69.78
2022-12-12T20:50:24.765Z,78.35
2022-12-12T20:53:11.031Z,74.03
2022-12-12T20:56:05.218Z,75.75
2022-12-12T20:58:56.169Z,80.78
2022-12-12T21:01:41.765Z,84.93
2022-12-12T21:04:28.187Z,74.15
2022-12-12T21:07:14.230Z,86.15
2022-12-12T21:09:59.783Z,81.63
2022-12-12T21:12:45.210Z,80.13
2022-12-12T21:15:30.873Z,80.43
2022-12-12T21:18:16.668Z,88.07
2022-12-12T21:21:02.741Z,84.50
2022-12-12T21:23:48.462Z,83.50
2022-12-12T21:26:34.925Z,88.30
2022-12-12T21:29:20.571Z,89.40
2022-12-12T21:32:06.363Z,87.25
2022-12-12T21:34:52.789Z,90.60
2022-12-12T21:37:40.619Z,94.97
2022-12-12T21:40:26.883Z,97.60
2022-12-12T21:43:12.507Z,93.53
2022-12-12T21:45:58.113Z,94.97
2022-12-12T21:48:44.023Z,105.45
2022-12-12T21:51:29.937Z,112.10
2022-12-12T21:54:16.097Z,115.70
2022-12-12T21:57:02.579Z,114.50
2022-12-12T21:59:50.396Z,107.93
2022-12-12T22:02:36.003Z,118.53
2022-12-12T22:05:21.484Z,112.53
2022-12-12T22:08:07.069Z,113.55
2022-12-12T22:10:54.501Z,119.15
2022-12-12T22:13:40.634Z,120.13
2022-12-12T22:16:26.309Z,108.65
2022-12-12T22:19:13.366Z,117.90
2022-12-12T22:21:59.573Z,126.93
2022-12-12T22:24:45.383Z,125.32
2022-12-12T22:27:33.957Z,130.93
2022-12-12T22:30:19.633Z,134.20
2022-12-12T22:33:05.208Z,124.70
2022-12-12T22:35:50.809Z,126.05
2022-12-12T22:38:38.385Z,135.05
2022-12-12T22:41:24.762Z,141.52
2022-12-12T22:44:14.730Z,135.85
2022-12-12T22:47:00.476Z,141.65
2022-12-12T22:49:45.939Z,141.10
2022-12-12T22:52:32.065Z,133.98
2022-12-12T22:55:18.171Z,132.88
2022-12-12T22:58:03.766Z,133.13
2022-12-12T23:00:58.490Z,137.75
2022-12-12T23:03:45.083Z,135.35
2022-12-12T23:06:32.922Z,138.38
2022-12-12T23:09:21.822Z,141.30
2022-12-12T23:12:07.816Z,123.25
2022-12-12T23:14:53.832Z,126.97
2022-12-12T23:17:39.597Z,113.40
2022-12-12T23:20:25.343Z,112.53
2022-12-12T23:23:11.053Z,109.95
2022-12-12T23:26:07.920Z,103.07
2022-12-12T23:28:54.080Z,106.53
2022-12-12T23:31:39.737Z,93.35
2022-12-12T23:34:25.896Z,98.30
2022-12-12T23:37:11.394Z,94.85
2022-12-12T23:39:57.394Z,108.82
2022-12-12T23:42:45.037Z,98.57
2022-12-12T23:45:30.659Z,86.88
2022-12-12T23:48:16.555Z,84.32
2022-12-12T23:51:02.781Z,96.13
2022-12-12T23:53:49.605Z,95.85
2022-12-12T23:56:35.588Z,101.32
2022-12-12T23:59:22.071Z,99.00
